sensor_id;sensor_type;location;lat;lon;timestamp;pressure;altitude;pressure_sealevel;temperature;humidity
59367;BME280;45163;47.690;11.770;2023-07-29T00:00:57;93254.13;;;16.52;100.00
59367;BME280;45163;47.690;11.770;2023-07-29T00:03:23;93250.31;;;16.49;100.00
59367;BME280;45163;47.690;11.770;2023-07-29T00:05:49;93256.75;;;16.46;100.00
59367;BME280;45163;47.690;11.770;2023-07-29T00:08:15;93243.84;;;16.52;100.00
59367;BME280;45163;47.690;11.770;2023-07-29T00:10:41;93238.03;;;16.50;100.00
59367;BME280;45163;47.690;11.770;2023-07-29T00:13:07;93245.53;;;16.50;100.00
59367;BME280;45163;47.690;11.770;2023-07-29T00:15:34;93243.38;;;16.39;100.00
59367;BME280;45163;47.690;11.770;2023-07-29T00:17:59;93245.63;;;16.40;100.00
59367;BME280;45163;47.690;11.770;2023-07-29T00:20:25;93244.59;;;16.38;100.00
59367;BME280;45163;47.690;11.770;2023-07-29T00:22:51;93245.47;;;16.44;100.00
59367;BME280;45163;47.690;11.770;2023-07-29T00:25:21;93235.69;;;16.43;100.00
59367;BME280;45163;47.690;11.770;2023-07-29T00:27:47;93239.84;;;16.38;100.00
59367;BME280;45163;47.690;11.770;2023-07-29T00:30:13;93238.41;;;16.28;100.00
59367;BME280;45163;47.690;11.770;2023-07-29T00:32:39;93234.50;;;16.20;100.00
59367;BME280;45163;47.690;11.770;2023-07-29T00:35:06;93225.56;;;16.25;100.00
59367;BME280;45163;47.690;11.770;2023-07-29T00:37:32;93224.94;;;16.30;100.00
59367;BME280;45163;47.690;11.770;2023-07-29T00:39:58;93217.41;;;16.16;100.00
59367;BME280;45163;47.690;11.770;2023-07-29T00:42:24;93210.84;;;16.13;100.00
59367;BME280;45163;47.690;11.770;2023-07-29T00:44:50;93209.72;;;16.20;100.00
59367;BME280;45163;47.690;11.770;2023-07-29T00:47:17;93218.16;;;16.16;100.00
59367;BME280;45163;47.690;11.770;2023-07-29T00:49:45;93220.25;;;16.07;100.00
59367;BME280;45163;47.690;11.770;2023-07-29T00:52:12;93218.63;;;16.15;100.00
59367;BME280;45163;47.690;11.770;2023-07-29T00:54:39;93221.56;;;16.11;100.00
59367;BME280;45163;47.690;11.770;2023-07-29T00:57:08;93218.63;;;16.15;100.00
59367;BME280;45163;47.690;11.770;2023-07-29T00:59:35;93217.31;;;16.10;100.00
59367;BME280;45163;47.690;11.770;2023-07-29T01:02:02;93221.75;;;16.08;100.00
59367;BME280;45163;47.690;11.770;2023-07-29T01:04:28;93212.63;;;16.02;100.00
59367;BME280;45163;47.690;11.770;2023-07-29T01:17:55;93208.41;;;15.91;100.00
59367;BME280;45163;47.690;11.770;2023-07-29T01:20:23;93205.75;;;15.82;100.00
59367;BME280;45163;47.690;11.770;2023-07-29T01:22:50;93206.63;;;15.88;100.00
59367;BME280;45163;47.690;11.770;2023-07-29T01:25:16;93201.41;;;15.90;100.00
59367;BME280;45163;47.690;11.770;2023-07-29T01:27:46;93198.03;;;15.72;100.00
59367;BME280;45163;47.690;11.770;2023-07-29T01:30:12;93197.50;;;15.82;100.00
59367;BME280;45163;47.690;11.770;2023-07-29T01:33:04;93199.00;;;15.83;100.00
59367;BME280;45163;47.690;11.770;2023-07-29T01:35:57;93198.03;;;15.72;100.00
59367;BME280;45163;47.690;11.770;2023-07-29T01:38:33;93193.47;;;15.68;100.00
59367;BME280;45163;47.690;11.770;2023-07-29T01:41:01;93186.78;;;15.60;100.00
59367;BME280;45163;47.690;11.770;2023-07-29T01:43:29;93181.41;;;15.66;100.00
59367;BME280;45163;47.690;11.770;2023-07-29T01:45:55;93181.94;;;15.55;100.00
59367;BME280;45163;47.690;11.770;2023-07-29T01:48:21;93185.72;;;15.58;100.00
59367;BME280;45163;47.690;11.770;2023-07-29T01:50:47;93187.81;;;15.63;100.00
59367;BME280;45163;47.690;11.770;2023-07-29T01:53:13;93182.78;;;15.61;100.00
59367;BME280;45163;47.690;11.770;2023-07-29T01:55:41;93184.44;;;15.44;100.00
59367;BME280;45163;47.690;11.770;2023-07-29T01:58:07;93183.22;;;15.45;100.00
59367;BME280;45163;47.690;11.770;2023-07-29T02:00:33;93178.13;;;15.29;100.00
59367;BME280;45163;47.690;11.770;2023-07-29T02:02:59;93181.00;;;15.34;100.00
59367;BME280;45163;47.690;11.770;2023-07-29T02:05:25;93174.25;;;15.35;100.00
59367;BME280;45163;47.690;11.770;2023-07-29T02:07:51;93173.53;;;15.50;100.00
59367;BME280;45163;47.690;11.770;2023-07-29T02:10:17;93170.13;;;15.55;100.00
59367;BME280;45163;47.690;11.770;2023-07-29T02:12:43;93161.31;;;15.51;100.00
59367;BME280;45163;47.690;11.770;2023-07-29T02:15:09;93162.84;;;15.52;100.00
59367;BME280;45163;47.690;11.770;2023-07-29T02:17:35;93153.59;;;15.40;100.00
59367;BME280;45163;47.690;11.770;2023-07-29T02:20:02;93162.69;;;15.31;100.00
59367;BME280;45163;47.690;11.770;2023-07-29T02:22:29;93164.44;;;15.19;100.00
59367;BME280;45163;47.690;11.770;2023-07-29T02:24:55;93166.59;;;15.15;100.00
59367;BME280;45163;47.690;11.770;2023-07-29T02:27:21;93162.78;;;15.13;100.00
59367;BME280;45163;47.690;11.770;2023-07-29T02:29:47;93172.19;;;15.21;100.00
59367;BME280;45163;47.690;11.770;2023-07-29T02:32:13;93173.75;;;15.22;100.00
59367;BME280;45163;47.690;11.770;2023-07-29T02:34:39;93181.41;;;15.18;100.00
59367;BME280;45163;47.690;11.770;2023-07-29T02:37:05;93175.59;;;15.40;100.00
59367;BME280;45163;47.690;11.770;2023-07-29T02:39:31;93178.59;;;15.51;100.00
59367;BME280;45163;47.690;11.770;2023-07-29T02:41:57;93163.44;;;15.56;100.00
59367;BME280;45163;47.690;11.770;2023-07-29T02:44:24;93164.63;;;15.55;100.00
59367;BME280;45163;47.690;11.770;2023-07-29T02:46:50;93177.78;;;15.36;100.00
59367;BME280;45163;47.690;11.770;2023-07-29T02:49:18;93181.38;;;15.42;100.00
59367;BME280;45163;47.690;11.770;2023-07-29T02:51:43;93184.97;;;15.33;100.00
59367;BME280;45163;47.690;11.770;2023-07-29T02:54:09;93197.44;;;15.43;100.00
59367;BME280;45163;47.690;11.770;2023-07-29T02:56:35;93204.88;;;15.52;100.00
59367;BME280;45163;47.690;11.770;2023-07-29T02:59:01;93220.63;;;15.52;100.00
59367;BME280;45163;47.690;11.770;2023-07-29T03:01:27;93233.19;;;15.43;100.00
59367;BME280;45163;47.690;11.770;2023-07-29T03:03:53;93258.47;;;15.57;100.00
59367;BME280;45163;47.690;11.770;2023-07-29T03:06:19;93258.28;;;15.69;100.00
59367;BME280;45163;47.690;11.770;2023-07-29T03:08:45;93275.84;;;15.63;100.00
59367;BME280;45163;47.690;11.770;2023-07-29T03:11:15;93271.31;;;15.60;100.00
59367;BME280;45163;47.690;11.770;2023-07-29T03:13:41;93263.56;;;15.49;100.00
59367;BME280;45163;47.690;11.770;2023-07-29T03:16:12;93269.41;;;15.42;100.00
59367;BME280;45163;47.690;11.770;2023-07-29T03:18:40;93259.34;;;15.39;100.00
59367;BME280;45163;47.690;11.770;2023-07-29T03:21:06;93249.28;;;15.36;100.00
59367;BME280;45163;47.690;11.770;2023-07-29T03:23:33;93246.22;;;15.34;100.00
59367;BME280;45163;47.690;11.770;2023-07-29T03:26:00;93239.13;;;15.51;100.00
59367;BME280;45163;47.690;11.770;2023-07-29T03:28:28;93239.63;;;15.40;100.00
59367;BME280;45163;47.690;11.770;2023-07-29T03:30:57;93240.22;;;15.44;100.00
59367;BME280;45163;47.690;11.770;2023-07-29T03:33:25;93228.56;;;15.50;100.00
59367;BME280;45163;47.690;11.770;2023-07-29T03:35:52;93219.97;;;15.57;100.00
59367;BME280;45163;47.690;11.770;2023-07-29T03:38:18;93220.81;;;15.63;100.00
59367;BME280;45163;47.690;11.770;2023-07-29T03:40:44;93229.41;;;15.65;100.00
59367;BME280;45163;47.690;11.770;2023-07-29T03:43:10;93221.44;;;15.67;100.00
59367;BME280;45163;47.690;11.770;2023-07-29T03:45:37;93221.63;;;15.63;100.00
59367;BME280;45163;47.690;11.770;2023-07-29T03:48:04;93227.72;;;15.67;100.00
59367;BME280;45163;47.690;11.770;2023-07-29T03:50:30;93215.31;;;15.63;100.00
59367;BME280;45163;47.690;11.770;2023-07-29T03:52:56;93214.44;;;15.66;100.00
59367;BME280;45163;47.690;11.770;2023-07-29T03:55:23;93205.16;;;15.54;100.00
59367;BME280;45163;47.690;11.770;2023-07-29T03:57:49;93215.56;;;15.50;100.00
59367;BME280;45163;47.690;11.770;2023-07-29T04:00:15;93220.69;;;15.66;100.00
59367;BME280;45163;47.690;11.770;2023-07-29T04:02:43;93217.47;;;15.68;100.00
59367;BME280;45163;47.690;11.770;2023-07-29T04:05:11;93221.66;;;15.54;100.00
59367;BME280;45163;47.690;11.770;2023-07-29T04:07:37;93222.69;;;15.66;100.00
59367;BME280;45163;47.690;11.770;2023-07-29T04:10:04;93225.13;;;15.64;100.00
59367;BME280;45163;47.690;11.770;2023-07-29T04:12:30;93237.69;;;15.65;100.00
59367;BME280;45163;47.690;11.770;2023-07-29T04:14:56;93247.00;;;15.67;100.00
59367;BME280;45163;47.690;11.770;2023-07-29T04:17:22;93255.19;;;15.77;100.00
59367;BME280;45163;47.690;11.770;2023-07-29T04:19:48;93247.91;;;15.64;100.00
59367;BME280;45163;47.690;11.770;2023-07-29T04:22:15;93237.22;;;15.57;100.00
59367;BME280;45163;47.690;11.770;2023-07-29T04:24:41;93234.09;;;15.74;100.00
59367;BME280;45163;47.690;11.770;2023-07-29T04:27:07;93221.84;;;15.75;100.00
59367;BME280;45163;47.690;11.770;2023-07-29T04:29:33;93219.28;;;15.71;100.00
59367;BME280;45163;47.690;11.770;2023-07-29T04:32:05;93215.59;;;15.74;100.00
59367;BME280;45163;47.690;11.770;2023-07-29T04:34:31;93213.59;;;15.75;100.00
59367;BME280;45163;47.690;11.770;2023-07-29T04:36:57;93203.53;;;15.72;100.00
59367;BME280;45163;47.690;11.770;2023-07-29T04:39:23;93198.81;;;15.63;100.00
59367;BME280;45163;47.690;11.770;2023-07-29T04:41:49;93191.97;;;15.67;100.00
59367;BME280;45163;47.690;11.770;2023-07-29T04:44:15;93186.44;;;15.43;100.00
59367;BME280;45163;47.690;11.770;2023-07-29T04:46:41;93177.00;;;15.59;100.00
59367;BME280;45163;47.690;11.770;2023-07-29T04:49:07;93177.16;;;15.65;100.00
59367;BME280;45163;47.690;11.770;2023-07-29T04:51:33;93183.41;;;15.65;100.00
59367;BME280;45163;47.690;11.770;2023-07-29T04:53:59;93181.88;;;15.64;100.00
59367;BME280;45163;47.690;11.770;2023-07-29T04:56:26;93182.41;;;15.78;100.00
59367;BME280;45163;47.690;11.770;2023-07-29T04:58:52;93179.38;;;15.90;100.00
59367;BME280;45163;47.690;11.770;2023-07-29T05:01:18;93172.56;;;16.01;100.00
59367;BME280;45163;47.690;11.770;2023-07-29T05:03:44;93170.94;;;15.94;100.00
59367;BME280;45163;47.690;11.770;2023-07-29T05:06:10;93164.88;;;16.05;100.00
59367;BME280;45163;47.690;11.770;2023-07-29T05:08:36;93167.44;;;16.08;100.00
59367;BME280;45163;47.690;11.770;2023-07-29T05:11:02;93158.59;;;16.04;100.00
59367;BME280;45163;47.690;11.770;2023-07-29T05:13:28;93159.47;;;16.25;100.00
59367;BME280;45163;47.690;11.770;2023-07-29T05:15:54;93154.84;;;16.31;100.00
59367;BME280;45163;47.690;11.770;2023-07-29T05:18:20;93143.72;;;16.26;100.00
59367;BME280;45163;47.690;11.770;2023-07-29T05:20:47;93127.00;;;16.29;100.00
59367;BME280;45163;47.690;11.770;2023-07-29T05:23:13;93122.50;;;16.47;100.00
59367;BME280;45163;47.690;11.770;2023-07-29T05:25:39;93139.13;;;16.82;100.00
59367;BME280;45163;47.690;11.770;2023-07-29T05:28:05;93128.56;;;16.80;100.00
59367;BME280;45163;47.690;11.770;2023-07-29T05:30:32;93126.88;;;16.68;100.00
59367;BME280;45163;47.690;11.770;2023-07-29T05:33:00;93116.88;;;16.71;100.00
59367;BME280;45163;47.690;11.770;2023-07-29T05:35:26;93126.59;;;16.81;100.00
59367;BME280;45163;47.690;11.770;2023-07-29T05:37:52;93131.13;;;16.84;100.00
59367;BME280;45163;47.690;11.770;2023-07-29T05:40:18;93111.66;;;16.58;100.00
59367;BME280;45163;47.690;11.770;2023-07-29T05:42:44;93099.78;;;16.66;100.00
59367;BME280;45163;47.690;11.770;2023-07-29T05:45:11;93113.09;;;17.03;100.00
59367;BME280;45163;47.690;11.770;2023-07-29T05:47:37;93112.22;;;17.32;100.00
59367;BME280;45163;47.690;11.770;2023-07-29T05:50:04;93108.63;;;17.47;100.00
59367;BME280;45163;47.690;11.770;2023-07-29T05:52:31;93110.72;;;17.52;100.00
59367;BME280;45163;47.690;11.770;2023-07-29T05:54:57;93100.53;;;17.63;100.00
59367;BME280;45163;47.690;11.770;2023-07-29T05:57:23;93098.28;;;17.82;100.00
59367;BME280;45163;47.690;11.770;2023-07-29T05:59:49;93101.09;;;17.88;100.00
59367;BME280;45163;47.690;11.770;2023-07-29T06:02:15;93112.97;;;18.20;100.00
59367;BME280;45163;47.690;11.770;2023-07-29T06:04:41;93111.78;;;18.27;100.00
59367;BME280;45163;47.690;11.770;2023-07-29T06:07:07;93100.50;;;18.04;100.00
59367;BME280;45163;47.690;11.770;2023-07-29T06:09:33;93105.66;;;17.71;100.00
59367;BME280;45163;47.690;11.770;2023-07-29T06:11:59;93142.03;;;17.89;100.00
59367;BME280;45163;47.690;11.770;2023-07-29T06:14:25;93208.66;;;17.77;100.00
59367;BME280;45163;47.690;11.770;2023-07-29T06:16:51;93176.66;;;16.79;100.00
59367;BME280;45163;47.690;11.770;2023-07-29T06:19:19;93194.81;;;16.56;100.00
59367;BME280;45163;47.690;11.770;2023-07-29T06:21:46;93209.47;;;16.48;100.00
59367;BME280;45163;47.690;11.770;2023-07-29T06:24:12;93210.88;;;16.43;100.00
59367;BME280;45163;47.690;11.770;2023-07-29T06:26:38;93203.09;;;16.27;100.00
59367;BME280;45163;47.690;11.770;2023-07-29T06:29:04;93204.13;;;16.44;100.00
59367;BME280;45163;47.690;11.770;2023-07-29T06:31:30;93199.28;;;16.39;100.00
59367;BME280;45163;47.690;11.770;2023-07-29T06:33:58;93198.91;;;16.46;100.00
59367;BME280;45163;47.690;11.770;2023-07-29T06:36:24;93195.19;;;16.49;100.00
59367;BME280;45163;47.690;11.770;2023-07-29T06:38:50;93188.28;;;16.39;100.00
59367;BME280;45163;47.690;11.770;2023-07-29T06:41:16;93188.84;;;16.43;100.00
59367;BME280;45163;47.690;11.770;2023-07-29T06:43:42;93190.25;;;16.38;100.00
59367;BME280;45163;47.690;11.770;2023-07-29T06:46:08;93207.66;;;16.44;100.00
59367;BME280;45163;47.690;11.770;2023-07-29T06:48:34;93264.31;;;16.22;100.00
59367;BME280;45163;47.690;11.770;2023-07-29T06:51:00;93292.50;;;16.16;100.00
59367;BME280;45163;47.690;11.770;2023-07-29T06:53:28;93277.56;;;16.08;100.00
59367;BME280;45163;47.690;11.770;2023-07-29T06:55:54;93257.31;;;16.35;100.00
59367;BME280;45163;47.690;11.770;2023-07-29T06:58:20;93267.75;;;16.31;100.00
59367;BME280;45163;47.690;11.770;2023-07-29T07:00:46;93268.81;;;16.34;100.00
59367;BME280;45163;47.690;11.770;2023-07-29T07:03:12;93254.94;;;16.28;100.00
59367;BME280;45163;47.690;11.770;2023-07-29T07:05:38;93240.41;;;16.28;100.00
59367;BME280;45163;47.690;11.770;2023-07-29T07:08:04;93241.06;;;16.37;100.00
59367;BME280;45163;47.690;11.770;2023-07-29T07:10:30;93242.53;;;16.48;100.00
59367;BME280;45163;47.690;11.770;2023-07-29T07:12:56;93233.78;;;16.49;100.00
59367;BME280;45163;47.690;11.770;2023-07-29T07:15:22;93231.28;;;16.36;100.00
59367;BME280;45163;47.690;11.770;2023-07-29T07:17:48;93233.59;;;16.53;100.00
59367;BME280;45163;47.690;11.770;2023-07-29T07:20:14;93236.31;;;16.67;100.00
59367;BME280;45163;47.690;11.770;2023-07-29T07:22:40;93241.03;;;16.76;100.00
59367;BME280;45163;47.690;11.770;2023-07-29T07:25:06;93240.06;;;16.94;100.00
59367;BME280;45163;47.690;11.770;2023-07-29T07:27:32;93236.78;;;17.25;100.00
59367;BME280;45163;47.690;11.770;2023-07-29T07:29:58;93226.34;;;17.50;100.00
59367;BME280;45163;47.690;11.770;2023-07-29T07:32:24;93219.75;;;17.82;100.00
59367;BME280;45163;47.690;11.770;2023-07-29T07:34:50;93216.16;;;17.97;100.00
59367;BME280;45163;47.690;11.770;2023-07-29T07:37:16;93205.47;;;17.84;100.00
59367;BME280;45163;47.690;11.770;2023-07-29T07:39:42;93191.50;;;18.13;100.00
59367;BME280;45163;47.690;11.770;2023-07-29T07:42:08;93195.50;;;18.12;100.00
59367;BME280;45163;47.690;11.770;2023-07-29T07:44:34;93189.22;;;18.38;100.00
59367;BME280;45163;47.690;11.770;2023-07-29T07:47:00;93170.50;;;18.74;100.00
59367;BME280;45163;47.690;11.770;2023-07-29T07:49:26;93176.13;;;19.65;100.00
59367;BME280;45163;47.690;11.770;2023-07-29T07:51:52;93148.19;;;20.68;100.00
59367;BME280;45163;47.690;11.770;2023-07-29T07:54:18;93130.72;;;21.40;100.00
59367;BME280;45163;47.690;11.770;2023-07-29T07:56:44;93133.31;;;22.43;100.00
59367;BME280;45163;47.690;11.770;2023-07-29T07:59:10;93133.56;;;22.45;100.00
59367;BME280;45163;47.690;11.770;2023-07-29T08:01:37;93134.31;;;21.99;100.00
59367;BME280;45163;47.690;11.770;2023-07-29T08:04:04;93133.50;;;21.46;100.00
59367;BME280;45163;47.690;11.770;2023-07-29T08:06:30;93148.97;;;20.91;100.00
59367;BME280;45163;47.690;11.770;2023-07-29T08:08:56;93134.53;;;20.47;100.00
59367;BME280;45163;47.690;11.770;2023-07-29T08:11:23;93110.56;;;20.16;100.00
59367;BME280;45163;47.690;11.770;2023-07-29T08:13:49;93128.41;;;20.04;100.00
59367;BME280;45163;47.690;11.770;2023-07-29T08:16:15;93128.22;;;20.24;100.00
59367;BME280;45163;47.690;11.770;2023-07-29T08:18:41;93123.41;;;20.30;100.00
59367;BME280;45163;47.690;11.770;2023-07-29T08:21:07;93124.47;;;20.89;100.00
59367;BME280;45163;47.690;11.770;2023-07-29T08:23:34;93124.69;;;21.19;100.00
59367;BME280;45163;47.690;11.770;2023-07-29T08:26:02;93112.06;;;21.35;100.00
59367;BME280;45163;47.690;11.770;2023-07-29T08:28:37;93118.91;;;21.00;100.00
59367;BME280;45163;47.690;11.770;2023-07-29T08:31:04;93124.44;;;21.34;100.00
59367;BME280;45163;47.690;11.770;2023-07-29T08:33:31;93120.16;;;21.05;100.00
59367;BME280;45163;47.690;11.770;2023-07-29T08:35:58;93125.00;;;20.71;100.00
59367;BME280;45163;47.690;11.770;2023-07-29T08:38:24;93127.53;;;20.74;100.00
59367;BME280;45163;47.690;11.770;2023-07-29T08:41:41;93128.28;;;20.86;100.00
59367;BME280;45163;47.690;11.770;2023-07-29T08:46:32;93127.97;;;20.33;100.00
59367;BME280;45163;47.690;11.770;2023-07-29T08:48:59;93136.25;;;20.11;100.00
59367;BME280;45163;47.690;11.770;2023-07-29T08:51:25;93148.38;;;20.30;100.00
59367;BME280;45163;47.690;11.770;2023-07-29T08:53:53;93150.16;;;20.39;100.00
59367;BME280;45163;47.690;11.770;2023-07-29T08:56:19;93157.94;;;20.24;100.00
59367;BME280;45163;47.690;11.770;2023-07-29T08:58:46;93165.53;;;20.40;100.00
59367;BME280;45163;47.690;11.770;2023-07-29T09:01:12;93157.09;;;19.95;100.00
59367;BME280;45163;47.690;11.770;2023-07-29T09:03:41;93149.88;;;20.26;100.00
59367;BME280;45163;47.690;11.770;2023-07-29T09:06:08;93141.28;;;20.12;100.00
59367;BME280;45163;47.690;11.770;2023-07-29T09:08:34;93145.03;;;19.98;100.00
59367;BME280;45163;47.690;11.770;2023-07-29T09:11:01;93139.47;;;19.93;100.00
59367;BME280;45163;47.690;11.770;2023-07-29T09:13:27;93138.44;;;19.84;100.00
59367;BME280;45163;47.690;11.770;2023-07-29T09:15:59;93136.88;;;19.72;100.00
59367;BME280;45163;47.690;11.770;2023-07-29T09:18:27;93134.44;;;19.42;100.00
59367;BME280;45163;47.690;11.770;2023-07-29T09:20:53;93139.00;;;19.46;100.00
59367;BME280;45163;47.690;11.770;2023-07-29T09:23:19;93135.81;;;19.64;100.00
59367;BME280;45163;47.690;11.770;2023-07-29T09:25:48;93156.59;;;19.97;100.00
59367;BME280;45163;47.690;11.770;2023-07-29T09:28:16;93140.25;;;19.99;100.00
59367;BME280;45163;47.690;11.770;2023-07-29T09:30:44;93141.03;;;20.16;100.00
59367;BME280;45163;47.690;11.770;2023-07-29T09:33:10;93142.59;;;20.45;100.00
59367;BME280;45163;47.690;11.770;2023-07-29T09:35:37;93138.38;;;20.78;100.00
59367;BME280;45163;47.690;11.770;2023-07-29T09:38:07;93110.63;;;20.95;100.00
59367;BME280;45163;47.690;11.770;2023-07-29T09:40:42;93123.69;;;21.05;100.00
59367;BME280;45163;47.690;11.770;2023-07-29T09:43:11;93117.31;;;21.44;100.00
59367;BME280;45163;47.690;11.770;2023-07-29T09:45:37;93111.88;;;21.85;100.00
59367;BME280;45163;47.690;11.770;2023-07-29T09:48:04;93113.63;;;22.41;100.00
59367;BME280;45163;47.690;11.770;2023-07-29T09:50:35;93113.50;;;22.58;100.00
59367;BME280;45163;47.690;11.770;2023-07-29T09:53:02;93091.31;;;22.77;100.00
59367;BME280;45163;47.690;11.770;2023-07-29T09:55:29;93080.94;;;22.77;100.00
59367;BME280;45163;47.690;11.770;2023-07-29T09:57:59;93083.06;;;23.69;100.00
59367;BME280;45163;47.690;11.770;2023-07-29T10:00:31;93065.44;;;24.36;100.00
59367;BME280;45163;47.690;11.770;2023-07-29T10:02:58;93064.19;;;24.19;100.00
59367;BME280;45163;47.690;11.770;2023-07-29T10:05:28;93077.44;;;24.50;100.00
59367;BME280;45163;47.690;11.770;2023-07-29T10:07:54;93069.75;;;24.70;100.00
59367;BME280;45163;47.690;11.770;2023-07-29T10:10:21;93061.31;;;24.05;100.00
59367;BME280;45163;47.690;11.770;2023-07-29T10:12:47;93057.09;;;24.69;100.00
59367;BME280;45163;47.690;11.770;2023-07-29T10:15:13;93055.38;;;25.24;100.00
59367;BME280;45163;47.690;11.770;2023-07-29T10:17:40;93041.63;;;25.53;100.00
59367;BME280;45163;47.690;11.770;2023-07-29T10:20:08;93044.56;;;26.42;100.00
59367;BME280;45163;47.690;11.770;2023-07-29T10:22:43;93043.50;;;26.87;100.00
59367;BME280;45163;47.690;11.770;2023-07-29T10:30:10;93025.00;;;26.84;100.00
59367;BME280;45163;47.690;11.770;2023-07-29T10:32:38;93021.53;;;26.36;100.00
59367;BME280;45163;47.690;11.770;2023-07-29T10:35:04;93029.25;;;25.88;100.00
59367;BME280;45163;47.690;11.770;2023-07-29T10:37:30;93032.44;;;26.61;100.00
59367;BME280;45163;47.690;11.770;2023-07-29T10:39:56;93029.03;;;25.86;100.00
59367;BME280;45163;47.690;11.770;2023-07-29T10:42:23;93029.56;;;26.53;100.00
59367;BME280;45163;47.690;11.770;2023-07-29T10:44:50;93033.19;;;26.82;100.00
59367;BME280;45163;47.690;11.770;2023-07-29T10:47:28;93024.06;;;27.67;100.00
59367;BME280;45163;47.690;11.770;2023-07-29T10:49:56;93021.97;;;27.89;100.00
59367;BME280;45163;47.690;11.770;2023-07-29T10:55:02;93021.81;;;28.02;100.00
59367;BME280;45163;47.690;11.770;2023-07-29T10:57:33;93026.66;;;29.52;100.00
59367;BME280;45163;47.690;11.770;2023-07-29T11:00:00;93013.78;;;29.19;98.78
59367;BME280;45163;47.690;11.770;2023-07-29T11:02:31;93015.56;;;29.70;100.00
59367;BME280;45163;47.690;11.770;2023-07-29T11:04:58;93021.41;;;28.49;97.57
59367;BME280;45163;47.690;11.770;2023-07-29T11:07:26;93024.59;;;28.84;100.00
59367;BME280;45163;47.690;11.770;2023-07-29T11:09:59;93018.78;;;28.59;100.00
59367;BME280;45163;47.690;11.770;2023-07-29T11:17:32;93009.19;;;29.54;100.00
59367;BME280;45163;47.690;11.770;2023-07-29T11:20:03;93012.63;;;28.84;100.00
59367;BME280;45163;47.690;11.770;2023-07-29T11:22:30;93004.94;;;28.61;94.93
59367;BME280;45163;47.690;11.770;2023-07-29T11:24:56;93012.81;;;28.93;100.00
59367;BME280;45163;47.690;11.770;2023-07-29T11:27:22;93006.78;;;28.59;100.00
59367;BME280;45163;47.690;11.770;2023-07-29T11:29:48;92997.22;;;27.79;100.00
59367;BME280;45163;47.690;11.770;2023-07-29T11:32:16;92990.38;;;27.60;100.00
59367;BME280;45163;47.690;11.770;2023-07-29T11:34:42;92994.16;;;28.14;100.00
59367;BME280;45163;47.690;11.770;2023-07-29T11:37:11;93000.44;;;28.58;100.00
59367;BME280;45163;47.690;11.770;2023-07-29T11:39:41;92995.75;;;28.53;100.00
59367;BME280;45163;47.690;11.770;2023-07-29T11:42:11;92996.72;;;28.56;100.00
59367;BME280;45163;47.690;11.770;2023-07-29T11:44:37;92992.94;;;28.53;100.00
59367;BME280;45163;47.690;11.770;2023-07-29T11:47:07;92998.59;;;27.94;100.00
59367;BME280;45163;47.690;11.770;2023-07-29T11:49:34;93002.13;;;28.84;100.00
59367;BME280;45163;47.690;11.770;2023-07-29T11:52:01;93000.25;;;28.94;100.00
59367;BME280;45163;47.690;11.770;2023-07-29T11:54:28;92997.47;;;28.64;100.00
59367;BME280;45163;47.690;11.770;2023-07-29T11:56:55;92991.44;;;29.44;100.00
59367;BME280;45163;47.690;11.770;2023-07-29T11:59:21;92985.72;;;30.80;89.30
59367;BME280;45163;47.690;11.770;2023-07-29T12:01:47;92992.66;;;30.87;90.29
59367;BME280;45163;47.690;11.770;2023-07-29T12:04:13;92996.19;;;30.62;94.95
59367;BME280;45163;47.690;11.770;2023-07-29T12:06:49;92989.75;;;29.33;94.03
59367;BME280;45163;47.690;11.770;2023-07-29T12:09:15;92990.66;;;29.59;95.78
59367;BME280;45163;47.690;11.770;2023-07-29T12:11:41;92985.75;;;29.59;97.70
59367;BME280;45163;47.690;11.770;2023-07-29T12:14:07;92977.53;;;29.38;100.00
59367;BME280;45163;47.690;11.770;2023-07-29T12:16:43;92979.09;;;29.16;98.82
59367;BME280;45163;47.690;11.770;2023-07-29T12:19:13;92976.66;;;28.82;100.00
59367;BME280;45163;47.690;11.770;2023-07-29T12:21:42;92977.63;;;29.00;100.00
59367;BME280;45163;47.690;11.770;2023-07-29T12:24:08;92969.16;;;28.46;98.35
59367;BME280;45163;47.690;11.770;2023-07-29T12:26:36;92971.25;;;27.50;100.00
59367;BME280;45163;47.690;11.770;2023-07-29T12:29:15;92957.88;;;27.28;100.00
59367;BME280;45163;47.690;11.770;2023-07-29T12:31:41;92952.22;;;27.93;100.00
59367;BME280;45163;47.690;11.770;2023-07-29T12:34:07;92952.97;;;28.01;100.00
59367;BME280;45163;47.690;11.770;2023-07-29T12:36:44;92960.19;;;28.40;100.00
59367;BME280;45163;47.690;11.770;2023-07-29T12:39:18;92940.91;;;28.83;100.00
59367;BME280;45163;47.690;11.770;2023-07-29T12:41:44;92945.47;;;29.57;89.65
59367;BME280;45163;47.690;11.770;2023-07-29T12:44:10;92938.09;;;30.67;95.28
59367;BME280;45163;47.690;11.770;2023-07-29T12:46:37;92930.97;;;30.41;91.37
59367;BME280;45163;47.690;11.770;2023-07-29T12:49:03;92926.13;;;30.34;84.37
59367;BME280;45163;47.690;11.770;2023-07-29T12:51:29;92914.81;;;30.91;84.26
59367;BME280;45163;47.690;11.770;2023-07-29T12:53:55;92911.66;;;30.05;89.15
59367;BME280;45163;47.690;11.770;2023-07-29T12:56:21;92915.22;;;28.86;92.42
59367;BME280;45163;47.690;11.770;2023-07-29T12:58:46;92912.59;;;29.03;95.21
59367;BME280;45163;47.690;11.770;2023-07-29T13:01:14;92913.00;;;28.69;95.80
59367;BME280;45163;47.690;11.770;2023-07-29T13:03:47;92919.34;;;28.93;99.41
59367;BME280;45163;47.690;11.770;2023-07-29T13:06:13;92919.84;;;29.22;92.97